createdAt,value
2018-06-11T00:00:50.279Z,84.9
2018-06-11T00:02:50.598Z,85.3
2018-06-11T00:04:50.937Z,85.3
2018-06-11T00:06:50.241Z,85.4
2018-06-11T00:08:50.364Z,85.4
2018-06-11T00:10:50.563Z,85.4
2018-06-11T00:12:50.733Z,85.3
2018-06-11T00:14:50.950Z,85.5
2018-06-11T00:16:50.292Z,85.9
2018-06-11T00:18:50.437Z,85.9
2018-06-11T00:20:50.619Z,85.9
2018-06-11T00:22:49.977Z,86.3
2018-06-11T00:24:50.118Z,86.4
2018-06-11T00:26:50.433Z,86.4
2018-06-11T00:28:50.611Z,86.2
2018-06-11T00:30:50.845Z,86.0
2018-06-11T00:32:50.141Z,86.0
2018-06-11T00:34:50.660Z,86.1
2018-06-11T00:36:50.912Z,86.0
2018-06-11T00:38:50.160Z,86.4
2018-06-11T00:40:50.272Z,86.3
2018-06-11T00:42:50.449Z,86.3
2018-06-11T00:44:50.592Z,86.6
2018-06-11T00:46:50.858Z,86.6
2018-06-11T00:48:49.996Z,86.9
2018-06-11T00:50:50.150Z,86.9
2018-06-11T00:52:50.559Z,87.4
2018-06-11T00:54:50.802Z,87.3
2018-06-11T00:56:50.230Z,87.8
2018-06-11T00:58:50.358Z,87.9
2018-06-11T01:00:50.589Z,88.2
2018-06-11T01:02:50.708Z,88.2
2018-06-11T01:04:50.026Z,88.6
2018-06-11T01:06:50.365Z,88.6
2018-06-11T01:08:50.491Z,88.7
2018-06-11T01:10:50.643Z,89.3
2018-06-11T01:12:50.791Z,89.4
2018-06-11T01:14:49.976Z,89.0
2018-06-11T01:16:50.216Z,89.2
2018-06-11T01:18:50.352Z,89.2
2018-06-11T01:20:50.562Z,89.6
2018-06-11T01:22:50.772Z,89.3
2018-06-11T01:24:50.934Z,89.4
2018-06-11T01:26:50.202Z,89.3
2018-06-11T01:28:50.308Z,89.5
2018-06-11T01:30:50.457Z,89.8
2018-06-11T01:32:50.643Z,89.7
2018-06-11T01:34:49.983Z,89.7
2018-06-11T01:36:50.273Z,89.9
2018-06-11T01:38:50.469Z,89.7
2018-06-11T01:40:50.619Z,89.6
2018-06-11T01:42:50.839Z,89.5
2018-06-11T01:44:50.032Z,89.7
2018-06-11T01:46:50.356Z,90.7
2018-06-11T01:48:50.529Z,90.7
2018-06-11T01:50:50.706Z,90.3
2018-06-11T01:52:50.887Z,89.9
2018-06-11T01:54:50.081Z,90.1
2018-06-11T01:56:50.394Z,89.3
2018-06-11T01:58:50.652Z,89.0
2018-06-11T02:00:50.818Z,88.8
2018-06-11T02:02:50.941Z,89.2
2018-06-11T02:04:50.340Z,89.0
2018-06-11T02:06:50.579Z,88.8
2018-06-11T02:08:50.643Z,88.8
2018-06-11T02:10:50.769Z,88.7
2018-06-11T02:12:50.022Z,88.7
2018-06-11T02:14:50.196Z,88.4
2018-06-11T02:16:50.522Z,88.1
2018-06-11T02:18:50.718Z,88.1
2018-06-11T02:20:50.840Z,88.1
2018-06-11T02:22:50.946Z,88.1
2018-06-11T02:24:50.203Z,87.9
2018-06-11T02:26:50.474Z,88.0
2018-06-11T02:28:50.623Z,88.0
2018-06-11T02:30:50.826Z,88.0
2018-06-11T02:32:49.958Z,88.0
2018-06-11T02:34:50.464Z,87.5
2018-06-11T02:36:50.732Z,87.2
2018-06-11T02:38:50.864Z,87.0
2018-06-11T02:40:49.994Z,87.0
2018-06-11T02:42:50.200Z,87.0
2018-06-11T02:44:50.356Z,87.1
2018-06-11T02:46:50.605Z,87.0
2018-06-11T02:48:50.764Z,87.3
2018-06-11T02:50:50.938Z,87.4
2018-06-11T02:52:50.110Z,87.4
2018-06-11T02:54:50.293Z,87.8
2018-06-11T02:56:50.517Z,88.2
2018-06-11T02:58:50.675Z,88.7
2018-06-11T03:00:50.788Z,88.7
2018-06-11T03:02:50.908Z,90.8
2018-06-11T03:04:50.262Z,91.0
2018-06-11T03:06:50.570Z,91.5
2018-06-11T03:08:50.684Z,92.3
2018-06-11T03:10:50.803Z,93.0
2018-06-11T03:12:50.955Z,91.7
2018-06-11T03:14:50.120Z,91.4
2018-06-11T03:16:50.392Z,92.0
2018-06-11T03:18:50.639Z,92.5
2018-06-11T03:20:50.799Z,92.6
2018-06-11T03:22:50.940Z,93.7
2018-06-11T03:24:50.093Z,94.0
2018-06-11T03:26:50.378Z,94.2
2018-06-11T03:28:50.536Z,95.1
2018-06-11T03:30:50.661Z,95.3
2018-06-11T03:32:50.855Z,94.8
2018-06-11T03:34:50.188Z,94.8
2018-06-11T03:36:50.460Z,94.8
2018-06-11T03:38:50.630Z,94.2
2018-06-11T03:40:50.802Z,94.7
2018-06-11T03:42:49.981Z,95.5
2018-06-11T03:44:50.109Z,95.2
2018-06-11T03:46:50.343Z,95.2
2018-06-11T03:48:50.585Z,94.2
2018-06-11T03:50:50.706Z,94.7
2018-06-11T03:52:51.251Z,95.2
2018-06-11T03:54:50.353Z,95.3
2018-06-11T03:56:50.646Z,95.2
2018-06-11T03:58:50.769Z,95.0
2018-06-11T04:00:51.122Z,95.5
2018-06-11T04:02:50.244Z,95.8
2018-06-11T04:04:50.647Z,95.8
2018-06-11T04:06:50.951Z,95.8
2018-06-11T04:08:50.081Z,94.8
2018-06-11T04:10:51.095Z,94.7
2018-06-11T04:12:50.332Z,94.7
2018-06-11T04:14:50.520Z,94.7
2018-06-11T04:16:50.802Z,94.4
2018-06-11T04:18:49.977Z,94.3
2018-06-11T04:20:50.135Z,94.0
2018-06-11T04:22:50.270Z,94.1
2018-06-11T04:24:50.460Z,93.7
2018-06-11T04:26:50.188Z,93.9
2018-06-11T04:28:50.359Z,93.8
2018-06-11T04:30:50.530Z,93.6
2018-06-11T04:32:50.661Z,93.3
2018-06-11T04:34:50.054Z,93.3
2018-06-11T04:36:50.348Z,92.6
2018-06-11T04:38:50.626Z,91.3
2018-06-11T04:40:50.826Z,91.4
2018-06-11T04:42:51.083Z,90.1
2018-06-11T04:44:50.190Z,90.0
2018-06-11T04:46:50.475Z,88.7
2018-06-11T04:48:50.632Z,89.0
2018-06-11T04:50:50.783Z,88.5
2018-06-11T04:52:50.932Z,87.6
2018-06-11T04:54:50.046Z,86.4
2018-06-11T04:56:50.318Z,84.9
2018-06-11T04:58:50.504Z,84.9
2018-06-11T05:00:50.686Z,84.4
2018-06-11T05:02:50.775Z,84.4
2018-06-11T05:04:50.104Z,83.8
2018-06-11T05:06:50.434Z,83.1
2018-06-11T05:08:50.637Z,83.1
2018-06-11T05:10:50.788Z,84.2
2018-06-11T05:12:49.959Z,84.3
2018-06-11T05:14:50.090Z,84.4
2018-06-11T05:16:50.325Z,84.1
2018-06-11T05:18:50.457Z,83.2
2018-06-11T05:20:50.631Z,81.6
2018-06-11T05:22:50.755Z,81.4
2018-06-11T05:24:50.968Z,80.9
2018-06-11T05:26:50.321Z,80.2
2018-06-11T05:28:50.982Z,79.1
2018-06-11T05:30:50.210Z,79.8
2018-06-11T05:32:50.353Z,78.7
2018-06-11T05:34:50.957Z,78.7
2018-06-11T05:36:50.944Z,78.1
2018-06-11T05:38:50.065Z,78.1
2018-06-11T05:40:50.236Z,78.9
2018-06-11T05:42:50.509Z,78.7
2018-06-11T05:44:50.644Z,78.7
2018-06-11T05:46:50.944Z,77.9
2018-06-11T05:48:50.088Z,78.1
2018-06-11T05:50:50.276Z,77.6
2018-06-11T05:52:50.560Z,78.3
2018-06-11T05:54:50.769Z,78.8
2018-06-11T05:56:50.134Z,78.9
2018-06-11T05:58:50.335Z,77.3
2018-06-11T06:00:50.483Z,77.0
2018-06-11T06:02:50.659Z,76.5
2018-06-11T06:04:50.921Z,76.8
2018-06-11T06:06:50.231Z,75.1
2018-06-11T06:08:50.548Z,75.3
2018-06-11T06:10:50.671Z,75.9
2018-06-11T06:12:50.828Z,75.0
2018-06-11T06:14:49.978Z,73.5
2018-06-11T06:16:50.272Z,71.8
2018-06-11T06:18:50.447Z,72.0
2018-06-11T06:20:50.657Z,71.1
2018-06-11T06:22:50.795Z,70.0
2018-06-11T06:24:49.970Z,69.3
2018-06-11T06:26:50.593Z,70.6
2018-06-11T06:28:50.908Z,71.4
2018-06-11T06:30:50.045Z,71.4
2018-06-11T06:32:50.157Z,71.4
2018-06-11T06:34:51.638Z,70.9
2018-06-11T06:36:50.252Z,70.8
2018-06-11T06:38:50.529Z,71.6
2018-06-11T06:40:50.683Z,71.5
2018-06-11T06:42:50.914Z,71.6
2018-06-11T06:44:50.021Z,71.8
2018-06-11T06:46:50.453Z,71.8
2018-06-11T06:48:50.613Z,71.7
2018-06-11T06:50:50.783Z,71.3
2018-06-11T06:52:49.982Z,71.3
2018-06-11T06:54:50.152Z,70.6
2018-06-11T06:56:50.389Z,70.9
2018-06-11T06:58:50.626Z,70.5
2018-06-11T07:00:50.760Z,69.7
2018-06-11T07:02:50.923Z,69.4
2018-06-11T07:04:50.311Z,68.6
2018-06-11T07:06:50.576Z,68.6
2018-06-11T07:08:50.973Z,67.8
2018-06-11T07:10:50.142Z,67.3
2018-06-11T07:12:50.290Z,67.3
2018-06-11T07:14:50.554Z,66.7
2018-06-11T07:16:50.823Z,66.9
2018-06-11T07:18:50.044Z,65.9
2018-06-11T07:20:50.265Z,64.9
2018-06-11T07:22:50.498Z,65.1
2018-06-11T07:24:50.669Z,65.1
2018-06-11T07:26:50.977Z,67.0
2018-06-11T07:28:50.189Z,67.5
2018-06-11T07:30:50.481Z,64.9
2018-06-11T07:32:50.646Z,64.8
2018-06-11T07:34:50.048Z,64.1
2018-06-11T07:36:50.288Z,64.1
2018-06-11T07:38:50.927Z,64
2018-06-11T07:40:50.072Z,64
2018-06-11T07:42:50.183Z,63
2018-06-11T07:44:50.398Z,63.4
2018-06-11T07:46:50.707Z,63.5
2018-06-11T07:48:50.838Z,63.0
2018-06-11T07:50:50.282Z,62.7
2018-06-11T07:52:50.455Z,62.5
2018-06-11T07:54:50.629Z,61.5
2018-06-11T07:56:51.004Z,61.9
2018-06-11T07:58:50.202Z,61.5
2018-06-11T08:00:50.347Z,62
2018-06-11T08:02:50.497Z,62
2018-06-11T08:04:50.890Z,62
2018-06-11T08:06:50.223Z,62
2018-06-11T08:08:50.447Z,61
2018-06-11T08:10:50.609Z,61
2018-06-11T08:12:50.897Z,61
2018-06-11T08:14:50.027Z,61
2018-06-11T08:16:50.280Z,61
2018-06-11T08:18:50.479Z,61
2018-06-11T08:20:50.994Z,61
2018-06-11T08:22:50.176Z,60
2018-06-11T08:24:50.519Z,59
2018-06-11T08:26:50.899Z,59
2018-06-11T08:28:50.079Z,59
2018-06-11T08:30:50.219Z,59
2018-06-11T08:32:50.466Z,59
2018-06-11T08:34:50.952Z,59
2018-06-11T08:36:50.214Z,59
2018-06-11T08:38:50.326Z,59
2018-06-11T08:40:50.462Z,58
2018-06-11T08:42:50.619Z,59
2018-06-11T08:44:50.770Z,58
2018-06-11T08:46:50.149Z,58
2018-06-11T08:48:50.296Z,58
2018-06-11T08:50:50.489Z,57
2018-06-11T08:52:50.785Z,58
2018-06-11T08:54:50.023Z,58
2018-06-11T08:56:50.309Z,58
2018-06-11T08:58:50.427Z,57
2018-06-11T09:00:50.622Z,56
2018-06-11T09:02:50.833Z,56
2018-06-11T09:04:50.302Z,56
2018-06-11T09:06:50.604Z,56
2018-06-11T09:08:50.749Z,56
2018-06-11T09:10:50.878Z,56
2018-06-11T09:12:50.031Z,55
2018-06-11T09:14:50.242Z,55
2018-06-11T09:16:50.426Z,54
2018-06-11T09:18:50.594Z,54
2018-06-11T09:20:50.772Z,52
2018-06-11T09:22:50.093Z,51
2018-06-11T09:24:50.296Z,51
2018-06-11T09:26:50.526Z,51
2018-06-11T09:28:50.698Z,51
2018-06-11T09:30:50.878Z,51
2018-06-11T09:32:49.994Z,52
2018-06-11T09:34:50.380Z,52
2018-06-11T09:36:50.691Z,53
2018-06-11T09:38:50.821Z,52
2018-06-11T09:40:50.945Z,52
2018-06-11T09:42:50.081Z,53
2018-06-11T09:44:50.300Z,53
2018-06-11T09:46:50.540Z,49
2018-06-11T09:48:50.693Z,50
2018-06-11T09:50:50.862Z,50
2018-06-11T09:52:50.059Z,50
2018-06-11T09:54:50.198Z,50
2018-06-11T09:56:50.392Z,50
2018-06-11T09:58:50.563Z,50
2018-06-11T10:00:50.717Z,51
2018-06-11T10:02:50.822Z,49
2018-06-11T10:04:50.139Z,49
2018-06-11T10:06:50.312Z,47
2018-06-11T10:08:50.424Z,43.1
2018-06-11T10:10:50.535Z,42.6
2018-06-11T10:12:50.654Z,41.9
2018-06-11T10:14:50.841Z,41.2
2018-06-11T10:16:50.174Z,47
2018-06-11T10:18:50.328Z,41.7
2018-06-11T10:20:50.480Z,42.7
2018-06-11T10:22:50.725Z,43.9
2018-06-11T10:24:51.089Z,44.8
2018-06-11T10:26:50.362Z,44.8
2018-06-11T10:28:50.466Z,45.0
2018-06-11T10:30:50.616Z,45.4
2018-06-11T10:32:50.786Z,44.2
2018-06-11T10:34:50.142Z,45.7
2018-06-11T10:36:50.455Z,46.8
2018-06-11T10:38:50.693Z,51.7
2018-06-11T10:40:50.912Z,52.9
2018-06-11T10:42:50.219Z,54.4
2018-06-11T10:44:50.446Z,56.4
2018-06-11T10:46:50.776Z,55.9
2018-06-11T10:48:50.939Z,56.0
2018-06-11T10:50:50.096Z,56.6
2018-06-11T10:52:50.231Z,58.0
2018-06-11T10:54:50.351Z,56.7
2018-06-11T10:56:50.549Z,57.8
2018-06-11T10:58:50.710Z,56.0
2018-06-11T11:00:50.901Z,54.1
2018-06-11T11:02:50.085Z,52.0
2018-06-11T11:04:50.505Z,49.8
2018-06-11T11:06:50.822Z,52.0
2018-06-11T11:08:51.757Z,49.9
2018-06-11T11:10:50.875Z,49.7
2018-06-11T11:12:50.039Z,50
2018-06-11T11:14:50.258Z,51
2018-06-11T11:16:50.501Z,51
2018-06-11T11:18:50.677Z,51
2018-06-11T11:20:50.852Z,51
2018-06-11T11:22:50.945Z,52
2018-06-11T11:24:50.058Z,52
2018-06-11T11:26:50.261Z,53
2018-06-11T11:28:50.384Z,53
2018-06-11T11:30:50.506Z,53
2018-06-11T11:32:50.695Z,53
2018-06-11T11:34:50.183Z,53
2018-06-11T11:36:50.552Z,53
2018-06-11T11:38:50.702Z,53
2018-06-11T11:40:50.924Z,53
2018-06-11T11:42:50.049Z,54
2018-06-11T11:44:50.248Z,54
2018-06-11T11:46:50.569Z,54
2018-06-11T11:48:50.714Z,54
2018-06-11T11:50:50.866Z,54
2018-06-11T11:52:50.130Z,54
2018-06-11T11:54:50.344Z,54
2018-06-11T11:56:50.693Z,54
2018-06-11T11:58:50.893Z,54
2018-06-11T12:00:50.032Z,53
2018-06-11T12:02:50.179Z,53
2018-06-11T12:04:50.632Z,53
2018-06-11T12:06:50.834Z,53
2018-06-11T12:08:50.053Z,52
2018-06-11T12:10:50.221Z,51
2018-06-11T12:12:50.424Z,52
2018-06-11T12:14:50.560Z,52
2018-06-11T12:16:50.917Z,52
2018-06-11T12:18:50.131Z,52
2018-06-11T12:20:50.318Z,52
2018-06-11T12:22:50.464Z,51
2018-06-11T12:24:50.606Z,51
2018-06-11T12:26:50.908Z,51
2018-06-11T12:28:50.030Z,50
2018-06-11T12:30:50.271Z,50
2018-06-11T12:32:50.472Z,50
2018-06-11T12:34:50.824Z,50
2018-06-11T12:36:50.060Z,50
2018-06-11T12:38:50.224Z,50
2018-06-11T12:40:50.376Z,50
2018-06-11T12:42:50.504Z,50
2018-06-11T12:44:50.770Z,50
2018-06-11T12:46:50.136Z,50
2018-06-11T12:48:50.281Z,48.7
2018-06-11T12:50:50.398Z,48.2
2018-06-11T12:52:51.337Z,48.6
2018-06-11T12:54:50.601Z,47.4
2018-06-11T12:56:50.948Z,47.4
2018-06-11T12:58:50.123Z,49.2
2018-06-11T13:00:50.261Z,50.6
2018-06-11T13:02:50.517Z,51.1
2018-06-11T13:04:50.867Z,52.0
2018-06-11T13:06:50.149Z,52.4
2018-06-11T13:08:50.281Z,53.2
2018-06-11T13:10:50.453Z,53.9
2018-06-11T13:12:50.615Z,54.2
2018-06-11T13:14:50.727Z,55.1
2018-06-11T13:16:50.089Z,55.8
2018-06-11T13:18:50.279Z,55.0
2018-06-11T13:20:50.817Z,56.1
2018-06-11T13:22:50.019Z,57.2
2018-06-11T13:24:50.213Z,57.2
2018-06-11T13:26:50.459Z,59.5
2018-06-11T13:28:50.708Z,59.8
2018-06-11T13:30:50.839Z,61.1
2018-06-11T13:32:49.961Z,61.8
2018-06-11T13:34:50.265Z,61.8
2018-06-11T13:36:50.567Z,61.3
2018-06-11T13:38:50.671Z,61.3
2018-06-11T13:40:50.812Z,60.8
2018-06-11T13:42:50.965Z,59.4
2018-06-11T13:44:50.647Z,59.4
2018-06-11T13:46:50.026Z,60.0
2018-06-11T13:48:50.225Z,60.3
2018-06-11T13:50:50.430Z,61.0
2018-06-11T13:52:50.570Z,60.9
2018-06-11T13:54:50.725Z,61.2
2018-06-11T13:56:50.957Z,61.8
2018-06-11T13:58:50.173Z,61.9
2018-06-11T14:00:50.393Z,61.5
2018-06-11T14:02:50.513Z,62.0
2018-06-11T14:04:50.007Z,62.5
2018-06-11T14:06:50.269Z,62.8
2018-06-11T14:08:50.429Z,63.3
2018-06-11T14:10:50.549Z,64.5
2018-06-11T14:12:50.704Z,64.9
2018-06-11T14:14:50.887Z,64.9
2018-06-11T14:16:50.488Z,68.2
2018-06-11T14:18:50.097Z,70.2
2018-06-11T14:20:50.433Z,72.3
2018-06-11T14:22:50.608Z,78.1
2018-06-11T14:24:50.738Z,82.2
2018-06-11T14:26:49.976Z,86.6
2018-06-11T14:28:50.044Z,88.5
2018-06-11T14:30:50.135Z,88.5
2018-06-11T14:32:50.475Z,90.2
2018-06-11T14:34:50.802Z,90.7
2018-06-11T14:36:50.179Z,89.7
2018-06-11T14:38:50.313Z,92.3
2018-06-11T14:40:50.476Z,91.5
2018-06-11T14:42:50.584Z,92.9
2018-06-11T14:44:50.701Z,94.2
2018-06-11T14:46:49.994Z,92.9
2018-06-11T14:48:50.126Z,92.8
2018-06-11T14:50:50.329Z,91.4
2018-06-11T14:52:50.416Z,90.4
2018-06-11T14:54:50.511Z,90.9
2018-06-11T14:56:50.718Z,90.4
2018-06-11T14:58:50.861Z,90.4
2018-06-11T15:00:50.036Z,92.1
2018-06-11T15:02:50.241Z,92.1
2018-06-11T15:04:50.555Z,93.4
2018-06-11T15:06:50.744Z,94.7
2018-06-11T15:08:50.856Z,93.6
2018-06-11T15:10:50.094Z,93.6
2018-06-11T15:12:50.339Z,94.3
2018-06-11T15:14:50.478Z,93.3
2018-06-11T15:16:50.757Z,93.8
2018-06-11T15:18:50.861Z,92.3
2018-06-11T15:20:50.024Z,91.2
2018-06-11T15:22:50.259Z,89.7
2018-06-11T15:24:50.935Z,90.9
2018-06-11T15:26:50.163Z,90.9
2018-06-11T15:28:50.264Z,93.3
2018-06-11T15:30:50.472Z,92.9
2018-06-11T15:32:50.586Z,92.9
2018-06-11T15:34:49.990Z,91.4
2018-06-11T15:36:50.230Z,91.6
2018-06-11T15:38:50.337Z,91.4
2018-06-11T15:40:50.535Z,91.6
2018-06-11T15:42:50.723Z,92.4
2018-06-11T15:44:50.937Z,92.8
2018-06-11T15:46:50.199Z,92.9
2018-06-11T15:48:50.387Z,92.3
2018-06-11T15:50:50.500Z,91.3
2018-06-11T15:52:50.649Z,92.0
2018-06-11T15:54:50.825Z,90.9
2018-06-11T15:56:50.798Z,91.8
2018-06-11T15:58:50.922Z,91.6
2018-06-11T16:00:50.069Z,91.8
2018-06-11T16:02:50.242Z,93.0
2018-06-11T16:04:50.616Z,92.9
2018-06-11T16:06:50.978Z,93.2
2018-06-11T16:08:50.201Z,91.9
2018-06-11T16:10:50.407Z,92.8
2018-06-11T16:12:50.529Z,93.3
2018-06-11T16:14:50.731Z,92.7
2018-06-11T16:16:50.034Z,94.4
2018-06-11T16:18:50.200Z,92.6
2018-06-11T16:20:50.371Z,92.6
2018-06-11T16:22:50.530Z,96.3
2018-06-11T16:24:50.718Z,96.9
2018-06-11T16:26:49.989Z,97.7
2018-06-11T16:28:50.206Z,97.5
2018-06-11T16:30:50.370Z,96.0
2018-06-11T16:32:50.640Z,97.4
2018-06-11T16:34:50.131Z,97.0
2018-06-11T16:36:50.423Z,97.4
2018-06-11T16:38:50.705Z,97.8
2018-06-11T16:40:50.888Z,97.2
2018-06-11T16:42:50.024Z,97.6
2018-06-11T16:44:50.152Z,96.7
2018-06-11T16:46:50.451Z,97.1
2018-06-11T16:48:50.997Z,98.4
2018-06-11T16:50:50.219Z,97.4
2018-06-11T16:52:50.386Z,97.4
2018-06-11T16:54:50.508Z,97.7
2018-06-11T16:56:50.754Z,98.0
2018-06-11T16:58:50.869Z,98.4
2018-06-11T17:00:50.018Z,98.7
2018-06-11T17:02:50.156Z,99.1
2018-06-11T17:04:50.454Z,99.4
2018-06-11T17:06:50.700Z,99.6
2018-06-11T17:08:50.847Z,99.1
2018-06-11T17:10:49.993Z,98.8
2018-06-11T17:12:50.229Z,98.4
2018-06-11T17:14:50.354Z,98.5
2018-06-11T17:16:50.659Z,97.9
2018-06-11T17:18:50.813Z,98.1
2018-06-11T17:20:50.958Z,98.3
2018-06-11T17:22:50.061Z,99.1
2018-06-11T17:24:50.197Z,99.1
2018-06-11T17:26:50.584Z,98.8
2018-06-11T17:28:50.701Z,98.6
2018-06-11T17:30:50.904Z,98.9
2018-06-11T17:32:50.008Z,98.9
2018-06-11T17:34:50.287Z,99.7
2018-06-11T17:36:50.602Z,100.0
2018-06-11T17:38:50.719Z,100.0
2018-06-11T17:40:50.863Z,100.0
2018-06-11T17:42:50.021Z,100.0
2018-06-11T17:44:50.222Z,100.0
2018-06-11T17:46:50.623Z,100.0
2018-06-11T17:48:50.865Z,100.0
2018-06-11T17:50:50.158Z,100.0
2018-06-11T17:52:50.422Z,100.0
2018-06-11T17:54:50.656Z,100.0
2018-06-11T17:56:50.886Z,100.0
2018-06-11T17:58:50.062Z,100.0
2018-06-11T18:00:50.267Z,100.0
2018-06-11T18:02:50.397Z,100.0
2018-06-11T18:04:50.823Z,100.0
2018-06-11T18:06:50.097Z,100.0
2018-06-11T18:08:50.250Z,100.0
2018-06-11T18:10:50.440Z,100.0
2018-06-11T18:12:50.569Z,100.0
2018-06-11T18:14:50.684Z,100.0
2018-06-11T18:16:50.924Z,100.0
2018-06-11T18:18:50.084Z,100.0
2018-06-11T18:20:50.238Z,100.0
2018-06-11T18:22:50.353Z,100.0
2018-06-11T18:24:50.408Z,100.0
2018-06-11T18:26:50.204Z,100.0
2018-06-11T18:28:50.349Z,100.0
2018-06-11T18:30:50.530Z,100.0
2018-06-11T18:32:50.647Z,100.0
2018-06-11T18:34:50.039Z,100.0
2018-06-11T18:36:50.297Z,100.0
2018-06-11T18:38:50.444Z,100.0
2018-06-11T18:40:50.565Z,100.0
2018-06-11T18:42:50.695Z,100.0
2018-06-11T18:44:50.859Z,100.0
2018-06-11T18:46:50.119Z,100.0
2018-06-11T18:48:50.265Z,100.0
2018-06-11T18:50:50.428Z,100.0
2018-06-11T18:52:50.604Z,100.0
2018-06-11T18:54:50.716Z,100.0
2018-06-11T18:56:50.921Z,100.0
2018-06-11T18:58:50.023Z,100.0
2018-06-11T19:00:50.169Z,100.0
2018-06-11T19:02:50.471Z,100.0
2018-06-11T19:04:51.371Z,100.0
2018-06-11T19:06:50.655Z,100.0
2018-06-11T19:08:50.764Z,100.0
2018-06-11T19:10:50.867Z,100.0
2018-06-11T19:12:50.019Z,100.0
2018-06-11T19:14:50.201Z,100.0
2018-06-11T19:16:50.472Z,100.0
2018-06-11T19:18:51.293Z,100.0
2018-06-11T19:20:50.494Z,100.0
2018-06-11T19:22:50.675Z,100.0
2018-06-11T19:24:50.787Z,100.0
2018-06-11T19:26:49.987Z,100.0
2018-06-11T19:28:50.125Z,100.0
2018-06-11T19:30:50.259Z,100.0
2018-06-11T19:32:50.368Z,100.0
2018-06-11T19:34:50.958Z,100.0
2018-06-11T19:36:50.162Z,100.0
2018-06-11T19:38:50.264Z,100.0
2018-06-11T19:40:51.151Z,100.0
2018-06-11T19:42:50.437Z,100.0
2018-06-11T19:44:50.540Z,100.0
2018-06-11T19:46:50.783Z,100.0
2018-06-11T19:48:50.891Z,100.0
2018-06-11T19:50:50.426Z,100.0
2018-06-11T19:52:50.712Z,100.0
2018-06-11T19:54:50.835Z,100.0
2018-06-11T19:56:50.120Z,100.0
2018-06-11T19:58:50.322Z,100.0
2018-06-11T20:00:50.563Z,100.0
2018-06-11T20:02:51.043Z,100.0
2018-06-11T20:04:50.422Z,100.0
2018-06-11T20:06:50.679Z,100.0
2018-06-11T20:08:51.386Z,100.0
2018-06-11T20:10:50.594Z,100.0
2018-06-11T20:12:50.802Z,100.0
2018-06-11T20:14:50.921Z,100.0
2018-06-11T20:16:50.357Z,100.0
2018-06-11T20:18:50.482Z,100.0
2018-06-11T20:20:50.630Z,100.0
2018-06-11T20:22:50.890Z,100.0
2018-06-11T20:24:50.019Z,100.0
2018-06-11T20:26:50.339Z,100.0
2018-06-11T20:28:50.465Z,100.0
2018-06-11T20:30:50.618Z,100.0
2018-06-11T20:32:50.807Z,100.0
2018-06-11T20:34:50.726Z,100.0
2018-06-11T20:36:49.957Z,100.0
2018-06-11T20:38:50.124Z,100.0
2018-06-11T20:40:50.222Z,100.0
2018-06-11T20:42:50.385Z,100.0
2018-06-11T20:44:50.485Z,100.0
2018-06-11T20:46:50.705Z,100.0
2018-06-11T20:48:50.813Z,100.0
2018-06-11T20:50:50.940Z,100.0
2018-06-11T20:52:50.032Z,100.0
2018-06-11T20:54:50.201Z,100.0
2018-06-11T20:56:50.473Z,100.0
2018-06-11T20:58:50.788Z,100.0
2018-06-11T21:00:50.029Z,100.0
2018-06-11T21:02:50.277Z,100.0
2018-06-11T21:04:50.614Z,100.0
2018-06-11T21:06:50.946Z,100.0
2018-06-11T21:08:50.050Z,100.0
2018-06-11T21:10:50.142Z,100.0
2018-06-11T21:12:50.273Z,100.0
2018-06-11T21:14:50.457Z,100.0
2018-06-11T21:16:50.806Z,100.0
2018-06-11T21:18:49.970Z,100.0
2018-06-11T21:20:50.041Z,100.0
2018-06-11T21:22:50.208Z,100.0
2018-06-11T21:24:50.367Z,100.0
2018-06-11T21:26:50.665Z,100.0
2018-06-11T21:28:50.846Z,100.0
2018-06-11T21:30:50.787Z,100.0
2018-06-11T21:32:50.728Z,100.0
2018-06-11T21:34:50.022Z,100.0
2018-06-11T21:36:50.343Z,100.0
2018-06-11T21:38:50.451Z,100.0
2018-06-11T21:40:50.651Z,100.0
2018-06-11T21:42:50.805Z,100.0
2018-06-11T21:44:50.736Z,100.0
2018-06-11T21:46:50.063Z,100.0
2018-06-11T21:48:50.389Z,100.0
2018-06-11T21:50:50.511Z,100.0
2018-06-11T21:52:50.666Z,100.0
2018-06-11T21:54:50.794Z,100.0
2018-06-11T21:56:50.123Z,100.0
2018-06-11T21:58:50.240Z,100.0
2018-06-11T22:00:50.432Z,100.0
2018-06-11T22:02:50.641Z,100.0
2018-06-11T22:04:51.040Z,100.0
2018-06-11T22:06:50.392Z,100.0
2018-06-11T22:08:50.586Z,100.0
2018-06-11T22:10:50.989Z,100.0
2018-06-11T22:12:50.135Z,100.0
2018-06-11T22:14:50.325Z,100.0
2018-06-11T22:16:50.633Z,100.0
2018-06-11T22:18:50.808Z,100.0
2018-06-11T22:20:50.969Z,100.0
2018-06-11T22:22:50.193Z,100.0
2018-06-11T22:24:50.333Z,100.0
2018-06-11T22:26:50.688Z,100.0
2018-06-11T22:28:50.808Z,100.0
2018-06-11T22:30:50.953Z,100.0
2018-06-11T22:32:50.150Z,100.0
2018-06-11T22:34:50.610Z,100.0
2018-06-11T22:36:50.906Z,100.0
2018-06-11T22:38:50.034Z,100.0
2018-06-11T22:40:50.171Z,100.0
2018-06-11T22:42:50.282Z,100.0
2018-06-11T22:44:50.406Z,100.0
2018-06-11T22:46:50.805Z,100.0
2018-06-11T22:48:50.907Z,100.0
2018-06-11T22:50:50.016Z,100.0
2018-06-11T22:52:50.140Z,100.0
2018-06-11T22:54:50.241Z,100.0
2018-06-11T22:56:50.592Z,100.0
2018-06-11T22:58:50.778Z,100.0
2018-06-11T23:00:50.881Z,100.0
2018-06-11T23:02:50.038Z,100.0
2018-06-11T23:04:50.290Z,100.0
2018-06-11T23:06:50.626Z,100.0
2018-06-11T23:08:50.799Z,100.0
2018-06-11T23:10:50.890Z,100.0
2018-06-11T23:12:50.233Z,100.0
2018-06-11T23:14:50.369Z,100.0
2018-06-11T23:16:50.597Z,100.0
2018-06-11T23:18:50.823Z,100.0
2018-06-11T23:20:50.952Z,100.0
2018-06-11T23:22:50.252Z,100.0
2018-06-11T23:24:50.457Z,100.0
2018-06-11T23:26:50.786Z,100.0
2018-06-11T23:28:50.978Z,100.0
2018-06-11T23:30:50.085Z,100.0
2018-06-11T23:32:50.221Z,100.0
2018-06-11T23:34:50.728Z,100.0
2018-06-11T23:36:50.051Z,100.0
2018-06-11T23:38:50.178Z,100.0
2018-06-11T23:40:50.296Z,100.0
2018-06-11T23:42:50.464Z,100.0
2018-06-11T23:44:50.631Z,100.0
2018-06-11T23:46:49.967Z,100.0
2018-06-11T23:48:50.119Z,100.0
2018-06-11T23:50:50.284Z,100.0
2018-06-11T23:52:50.532Z,100.0
2018-06-11T23:54:50.661Z,100.0
2018-06-11T23:56:50.009Z,100.0
2018-06-11T23:58:50.183Z,100.0
